createdAt,value
2018-02-02T00:02:10.929Z,99644.00
2018-02-02T00:04:37.174Z,99642.06
2018-02-02T00:07:03.370Z,99646.16
2018-02-02T00:09:29.807Z,99656.74
2018-02-02T00:11:56.092Z,99656.31
2018-02-02T00:14:22.288Z,99649.16
2018-02-02T00:16:48.488Z,99650.84
2018-02-02T00:19:14.682Z,99663.00
2018-02-02T00:21:40.840Z,99652.05
2018-02-02T00:24:07.108Z,99655.09
2018-02-02T00:26:33.377Z,99648.22
2018-02-02T00:28:59.848Z,99650.34
2018-02-02T00:31:26.432Z,99657.27
2018-02-02T00:33:52.644Z,99659.03
2018-02-02T00:36:18.857Z,99665.96
2018-02-02T00:38:45.374Z,99660.92
2018-02-02T00:41:11.562Z,99664.04
2018-02-02T00:43:37.742Z,99659.23
2018-02-02T00:46:03.972Z,99653.13
2018-02-02T00:48:30.184Z,99663.16
2018-02-02T00:53:58.560Z,99666.21
2018-02-02T00:56:24.871Z,99675.43
2018-02-02T00:58:51.070Z,99669.86
2018-02-02T01:01:17.235Z,99672.42
2018-02-02T01:03:43.763Z,99680.47
2018-02-02T01:06:10.000Z,99676.44
2018-02-02T01:08:36.187Z,99674.11
2018-02-02T01:11:03.002Z,99670.58
2018-02-02T01:13:29.180Z,99675.33
2018-02-02T01:15:55.361Z,99676.52
2018-02-02T01:18:21.612Z,99679.53
2018-02-02T01:20:47.820Z,99679.59
2018-02-02T01:23:14.024Z,99679.10
2018-02-02T01:25:40.618Z,99685.64
2018-02-02T01:28:06.808Z,99692.86
2018-02-02T01:30:33.032Z,99683.41
2018-02-02T01:32:59.274Z,99685.20
2018-02-02T01:35:25.434Z,99683.47
2018-02-02T01:37:51.611Z,99680.02
2018-02-02T01:40:17.839Z,99683.23
2018-02-02T01:42:44.027Z,99684.92
2018-02-02T01:45:10.225Z,99681.38
2018-02-02T01:47:36.827Z,99683.95
2018-02-02T01:50:03.073Z,99681.72
2018-02-02T01:52:29.327Z,99688.22
2018-02-02T01:54:55.530Z,99684.77
2018-02-02T01:57:21.742Z,99686.95
2018-02-02T01:59:48.035Z,99690.34
2018-02-02T02:02:14.196Z,99686.02
2018-02-02T02:04:40.455Z,99686.03
2018-02-02T02:07:06.898Z,99687.98
2018-02-02T02:09:33.096Z,99689.83
2018-02-02T02:11:59.580Z,99687.80
2018-02-02T02:14:26.057Z,99692.70
2018-02-02T02:16:52.596Z,99679.95
2018-02-02T02:19:18.852Z,99684.16
2018-02-02T02:21:45.066Z,99689.00
2018-02-02T02:24:11.584Z,99683.83
2018-02-02T02:26:37.842Z,99688.58
2018-02-02T02:29:04.019Z,99676.89
2018-02-02T02:31:30.466Z,99681.05
2018-02-02T02:33:56.696Z,99678.72
2018-02-02T02:36:22.866Z,99690.06
2018-02-02T02:38:49.040Z,99677.66
2018-02-02T02:41:15.593Z,99675.91
2018-02-02T02:43:41.805Z,99672.86
2018-02-02T02:46:08.001Z,99676.20
2018-02-02T02:48:34.350Z,99676.91
2018-02-02T02:51:00.516Z,99675.66
2018-02-02T02:53:27.046Z,99679.48
2018-02-02T02:55:53.292Z,99682.45
2018-02-02T02:58:19.487Z,99681.56
2018-02-02T03:00:46.092Z,99679.05
2018-02-02T03:03:12.300Z,99679.44
2018-02-02T03:05:38.797Z,99682.50
2018-02-02T03:08:05.060Z,99687.44
2018-02-02T03:10:31.246Z,99688.03
2018-02-02T03:12:57.786Z,99683.17
2018-02-02T03:15:24.626Z,99694.97
2018-02-02T03:17:50.832Z,99690.50
2018-02-02T03:20:17.295Z,99689.67
2018-02-02T03:22:43.534Z,99686.28
2018-02-02T03:25:09.692Z,99682.84
2018-02-02T03:27:35.887Z,99687.59
2018-02-02T03:30:02.110Z,99690.22
2018-02-02T03:32:28.355Z,99685.95
2018-02-02T03:34:54.533Z,99681.20
2018-02-02T03:37:20.969Z,99683.14
2018-02-02T03:39:47.228Z,99692.70
2018-02-02T03:42:13.440Z,99682.17
2018-02-02T03:44:39.641Z,99680.03
2018-02-02T03:47:05.863Z,99678.63
2018-02-02T03:49:32.412Z,99684.65
2018-02-02T03:51:58.616Z,99687.64
2018-02-02T03:54:24.911Z,99691.91
2018-02-02T03:56:51.127Z,99690.92
2018-02-02T03:59:17.327Z,99686.41
2018-02-02T04:01:43.509Z,99684.23
2018-02-02T04:04:09.836Z,99679.06
2018-02-02T04:06:36.073Z,99683.85
2018-02-02T04:09:02.292Z,99682.50
2018-02-02T04:11:28.527Z,99687.29
2018-02-02T04:13:54.723Z,99687.33
2018-02-02T04:16:20.927Z,99686.84
2018-02-02T04:18:47.521Z,99696.17
2018-02-02T04:21:13.713Z,99692.92
2018-02-02T04:23:40.140Z,99696.75
2018-02-02T04:26:06.392Z,99698.25
2018-02-02T04:28:32.554Z,99702.71
2018-02-02T04:30:58.762Z,99706.36
2018-02-02T04:33:25.258Z,99704.56
2018-02-02T04:38:47.865Z,99706.41
2018-02-02T04:41:14.047Z,99708.64
2018-02-02T04:43:40.233Z,99705.11
2018-02-02T04:46:06.535Z,99714.70
2018-02-02T04:48:32.729Z,99708.64
2018-02-02T04:50:58.984Z,99710.87
2018-02-02T04:53:25.554Z,99709.94
2018-02-02T04:55:51.722Z,99711.20
2018-02-02T04:58:17.917Z,99712.09
2018-02-02T05:00:44.489Z,99709.03
2018-02-02T05:03:10.661Z,99716.05
2018-02-02T05:05:36.848Z,99712.14
2018-02-02T05:08:03.088Z,99705.20
2018-02-02T05:10:29.607Z,99710.34
2018-02-02T05:12:55.808Z,99707.73
2018-02-02T05:15:22.313Z,99708.59
2018-02-02T05:17:48.539Z,99705.83
2018-02-02T05:20:15.026Z,99709.70
2018-02-02T05:22:41.629Z,99718.58
2018-02-02T05:25:07.812Z,99722.36
2018-02-02T05:27:34.008Z,99714.94
2018-02-02T05:30:00.247Z,99717.45
2018-02-02T05:32:26.439Z,99715.33
2018-02-02T05:34:52.907Z,99716.16
2018-02-02T05:37:19.156Z,99711.79
2018-02-02T05:39:45.355Z,99711.83
2018-02-02T05:42:11.908Z,99712.21
2018-02-02T05:44:38.245Z,99705.46
2018-02-02T05:47:04.768Z,99710.70
2018-02-02T05:49:30.960Z,99709.12
2018-02-02T05:51:57.339Z,99711.83
2018-02-02T05:54:25.879Z,99711.54
2018-02-02T05:56:52.050Z,99706.36
2018-02-02T05:59:18.271Z,99709.08
2018-02-02T06:01:44.467Z,99714.75
2018-02-02T06:04:10.747Z,99710.00
2018-02-02T06:06:36.913Z,99708.75
2018-02-02T06:09:03.235Z,99710.53
2018-02-02T06:11:29.780Z,99721.98
2018-02-02T06:13:56.211Z,99722.37
2018-02-02T06:16:22.401Z,99718.05
2018-02-02T06:18:48.649Z,99722.84
2018-02-02T06:21:14.853Z,99722.61
2018-02-02T06:23:41.098Z,99725.85
2018-02-02T06:26:07.372Z,99729.44
2018-02-02T06:28:33.580Z,99725.13
2018-02-02T06:30:59.792Z,99738.31
2018-02-02T06:33:26.057Z,99743.08
2018-02-02T06:35:52.356Z,99748.26
2018-02-02T06:38:18.547Z,99749.53
2018-02-02T06:40:44.774Z,99756.50
2018-02-02T06:43:11.203Z,99754.70
2018-02-02T06:45:37.453Z,99758.98
2018-02-02T06:48:03.959Z,99758.88
2018-02-02T06:50:30.145Z,99768.08
2018-02-02T06:52:56.355Z,99763.38
2018-02-02T06:55:22.948Z,99768.07
2018-02-02T06:57:49.163Z,99767.64
2018-02-02T07:00:15.456Z,99775.69
2018-02-02T07:02:41.673Z,99770.73
2018-02-02T07:05:07.860Z,99781.20
2018-02-02T07:07:34.353Z,99783.00
2018-02-02T07:10:00.541Z,99786.17
2018-02-02T07:12:26.992Z,99790.14
2018-02-02T07:14:53.241Z,99798.43
2018-02-02T07:17:19.442Z,99803.14
2018-02-02T07:19:45.619Z,99812.98
2018-02-02T07:22:11.873Z,99815.06
2018-02-02T07:24:38.064Z,99818.41
2018-02-02T07:27:04.278Z,99819.72
2018-02-02T07:29:30.799Z,99818.13
2018-02-02T07:31:56.979Z,99818.76
2018-02-02T07:34:23.181Z,99821.52
2018-02-02T07:36:49.484Z,99825.98
2018-02-02T07:39:15.674Z,99822.98
2018-02-02T07:41:41.872Z,99828.80
2018-02-02T07:44:08.115Z,99831.89
2018-02-02T07:46:34.292Z,99835.82
2018-02-02T07:49:00.495Z,99839.31
2018-02-02T07:51:27.088Z,99844.41
2018-02-02T07:53:53.340Z,99854.45
2018-02-02T07:56:19.563Z,99854.98
2018-02-02T07:58:46.168Z,99856.34
2018-02-02T08:01:18.459Z,99858.52
2018-02-02T08:03:44.672Z,99862.40
2018-02-02T08:06:11.241Z,99854.50
2018-02-02T08:08:37.446Z,99850.91
2018-02-02T08:11:03.669Z,99850.56
2018-02-02T08:13:30.231Z,99861.19
2018-02-02T08:15:56.406Z,99865.20
2018-02-02T08:18:22.589Z,99868.31
2018-02-02T08:20:48.803Z,99870.06
2018-02-02T08:23:15.011Z,99879.22
2018-02-02T08:25:41.258Z,99875.38
2018-02-02T08:28:07.493Z,99875.82
2018-02-02T08:30:33.664Z,99876.27
2018-02-02T08:33:00.161Z,99880.71
2018-02-02T08:35:26.342Z,99885.47
2018-02-02T08:37:52.819Z,99881.06
2018-02-02T08:40:19.061Z,99876.20
2018-02-02T08:42:45.259Z,99874.03
2018-02-02T08:45:12.019Z,99878.30
2018-02-02T08:47:38.519Z,99876.95
2018-02-02T08:50:04.905Z,99879.86
2018-02-02T08:52:31.523Z,99878.94
2018-02-02T08:54:58.368Z,99882.83
2018-02-02T08:57:24.559Z,99887.17
2018-02-02T08:59:50.729Z,99890.88
2018-02-02T09:02:16.979Z,99903.97
2018-02-02T09:04:43.552Z,99908.87
2018-02-02T09:07:09.730Z,99901.55
2018-02-02T09:09:36.300Z,99907.66
2018-02-02T09:12:02.779Z,99911.14
2018-02-02T09:14:29.038Z,99919.48
2018-02-02T09:16:55.501Z,99923.45
2018-02-02T09:19:21.717Z,99930.44
2018-02-02T09:21:52.806Z,99935.20
2018-02-02T09:24:20.163Z,99934.41
2018-02-02T09:26:46.464Z,99932.76
2018-02-02T09:29:12.672Z,99940.66
2018-02-02T09:31:39.041Z,99935.42
2018-02-02T09:34:05.591Z,99939.78
2018-02-02T09:36:31.770Z,99937.17
2018-02-02T09:38:58.045Z,99940.22
2018-02-02T09:41:24.581Z,99927.56
2018-02-02T09:43:50.829Z,99936.59
2018-02-02T09:46:17.007Z,99939.25
2018-02-02T09:48:43.768Z,99944.10
2018-02-02T09:51:10.398Z,99939.22
2018-02-02T09:53:36.636Z,99953.14
2018-02-02T09:56:02.844Z,99954.45
2018-02-02T09:58:29.406Z,99950.42
2018-02-02T10:00:55.616Z,99957.09
2018-02-02T10:03:21.858Z,99953.89
2018-02-02T10:05:48.092Z,99953.45
2018-02-02T10:08:14.383Z,99965.86
2018-02-02T10:10:40.621Z,99964.64
2018-02-02T10:13:07.079Z,99966.45
2018-02-02T10:15:33.515Z,99967.80
2018-02-02T10:18:00.367Z,99966.05
2018-02-02T10:20:26.552Z,99978.31
2018-02-02T10:22:52.800Z,99969.63
2018-02-02T10:25:19.411Z,99974.73
2018-02-02T10:27:45.884Z,99976.86
2018-02-02T10:30:12.108Z,99976.05
2018-02-02T10:32:38.384Z,99973.86
2018-02-02T10:35:04.607Z,99981.72
2018-02-02T10:37:30.803Z,99981.81
2018-02-02T10:39:57.352Z,99981.85
2018-02-02T10:42:23.540Z,99975.78
2018-02-02T10:44:49.703Z,99970.16
2018-02-02T10:47:15.983Z,99970.68
2018-02-02T10:49:42.245Z,99969.33
2018-02-02T10:52:08.469Z,99971.86
2018-02-02T10:54:34.698Z,99974.78
2018-02-02T10:57:00.908Z,99981.19
2018-02-02T10:59:27.090Z,99975.72
2018-02-02T11:01:59.507Z,99971.48
2018-02-02T11:04:25.779Z,99972.64
2018-02-02T11:06:51.991Z,99971.37
2018-02-02T11:09:18.460Z,99972.69
2018-02-02T11:11:44.679Z,99961.83
2018-02-02T11:14:10.879Z,99961.42
2018-02-02T11:16:37.412Z,99966.19
2018-02-02T11:19:03.599Z,99962.20
2018-02-02T11:21:30.076Z,99966.05
2018-02-02T11:23:56.348Z,99968.61
2018-02-02T11:26:22.537Z,99968.17
2018-02-02T11:28:49.066Z,99968.61
2018-02-02T11:31:15.612Z,99966.88
2018-02-02T11:33:41.787Z,99967.45
2018-02-02T11:36:07.973Z,99974.62
2018-02-02T11:38:34.224Z,99966.87
2018-02-02T11:41:00.382Z,99967.36
2018-02-02T11:43:26.544Z,99962.55
2018-02-02T11:45:52.831Z,99976.52
2018-02-02T11:48:19.032Z,99970.41
2018-02-02T11:50:45.255Z,99976.04
2018-02-02T11:53:11.495Z,99971.08
2018-02-02T11:55:37.707Z,99981.86
2018-02-02T11:58:03.905Z,99980.59
2018-02-02T12:00:30.543Z,99978.46
2018-02-02T12:02:56.796Z,99982.05
2018-02-02T12:05:23.060Z,99982.44
2018-02-02T12:07:49.601Z,99980.73
2018-02-02T12:10:15.838Z,99980.65
2018-02-02T12:12:42.036Z,99980.65
2018-02-02T12:15:08.328Z,99978.94
2018-02-02T12:17:34.585Z,99990.64
2018-02-02T12:20:00.856Z,99987.97
2018-02-02T12:25:39.944Z,99993.13
2018-02-02T12:31:07.589Z,99996.84
2018-02-02T12:33:39.876Z,99993.80
2018-02-02T12:39:02.734Z,99991.52
2018-02-02T12:41:29.020Z,99994.00
2018-02-02T12:43:55.517Z,99999.58
2018-02-02T12:46:21.702Z,99991.57
2018-02-02T12:48:57.387Z,100005.94
2018-02-02T12:51:23.568Z,100005.75
2018-02-02T12:53:49.786Z,100009.20
2018-02-02T12:56:16.040Z,100010.90
2018-02-02T12:58:42.236Z,100010.02
2018-02-02T13:01:08.446Z,100005.70
2018-02-02T13:03:34.783Z,100007.94
2018-02-02T13:06:01.305Z,100008.56
2018-02-02T13:08:27.525Z,100002.55
2018-02-02T13:10:54.059Z,100002.11
2018-02-02T13:13:20.299Z,100006.09
2018-02-02T13:15:46.475Z,100012.34
2018-02-02T13:18:12.731Z,100005.88
2018-02-02T13:20:39.279Z,100008.22
2018-02-02T13:23:05.465Z,100015.73
2018-02-02T13:25:31.956Z,100011.38
2018-02-02T13:27:58.194Z,100010.16
2018-02-02T13:30:24.409Z,100012.88
2018-02-02T13:32:50.600Z,100005.34
2018-02-02T13:35:17.107Z,100010.94
2018-02-02T13:37:43.276Z,100005.64
2018-02-02T13:40:09.711Z,100006.91
2018-02-02T13:42:36.311Z,100006.83
2018-02-02T13:45:02.497Z,100010.41
2018-02-02T13:47:28.681Z,100014.91
2018-02-02T13:49:55.239Z,100012.88
2018-02-02T13:52:21.408Z,100016.94
2018-02-02T13:54:47.599Z,100031.78
2018-02-02T13:57:13.841Z,100024.41
2018-02-02T13:59:40.356Z,100027.47
2018-02-02T14:02:06.793Z,100037.94
2018-02-02T14:04:33.327Z,100032.66
2018-02-02T14:06:59.527Z,100034.02
2018-02-02T14:09:26.031Z,100033.97
2018-02-02T14:11:52.235Z,100036.63
2018-02-02T14:14:18.463Z,100036.64
2018-02-02T14:16:44.730Z,100040.22
2018-02-02T14:19:10.934Z,100051.63
2018-02-02T14:21:37.106Z,100043.82
2018-02-02T14:24:03.667Z,100048.66
2018-02-02T14:26:30.203Z,100047.75
2018-02-02T14:28:56.630Z,100052.02
2018-02-02T14:31:22.880Z,100054.16
2018-02-02T14:33:49.104Z,100049.82
2018-02-02T14:36:15.296Z,100052.86
2018-02-02T14:38:41.507Z,100059.00
2018-02-02T14:41:07.763Z,100059.83
2018-02-02T14:43:33.968Z,100062.01
2018-02-02T14:46:00.437Z,100067.21
2018-02-02T14:48:26.655Z,100068.55
2018-02-02T14:50:53.200Z,100070.80
2018-02-02T14:53:19.805Z,100078.79
2018-02-02T14:55:46.375Z,100077.00
2018-02-02T14:58:12.587Z,100074.39
2018-02-02T15:00:38.863Z,100078.75
2018-02-02T15:03:05.068Z,100080.97
2018-02-02T15:05:31.336Z,100082.38
2018-02-02T15:07:57.555Z,100091.63
2018-02-02T15:10:23.759Z,100091.72
2018-02-02T15:12:49.977Z,100097.00
2018-02-02T15:15:16.245Z,100096.17
2018-02-02T15:17:42.442Z,100100.16
2018-02-02T15:20:08.621Z,100103.69
2018-02-02T15:22:37.712Z,100102.42
2018-02-02T15:25:03.908Z,100101.10
2018-02-02T15:27:30.102Z,100103.72
2018-02-02T15:29:56.372Z,100106.83
2018-02-02T15:32:22.566Z,100109.41
2018-02-02T15:34:49.092Z,100111.98
2018-02-02T15:37:15.630Z,100107.22
2018-02-02T15:39:41.846Z,100110.28
2018-02-02T15:42:08.076Z,100111.11
2018-02-02T15:44:34.308Z,100115.52
2018-02-02T15:47:00.524Z,100115.52
2018-02-02T15:49:26.712Z,100119.84
2018-02-02T15:51:52.939Z,100121.63
2018-02-02T15:54:19.125Z,100121.27
2018-02-02T15:56:45.665Z,100125.25
2018-02-02T15:59:12.302Z,100129.22
2018-02-02T16:01:38.508Z,100130.53
2018-02-02T16:04:04.703Z,100132.75
2018-02-02T16:06:31.292Z,100137.59
2018-02-02T16:08:57.480Z,100141.52
2018-02-02T16:11:23.720Z,100139.82
2018-02-02T16:13:50.278Z,100144.14
2018-02-02T16:16:16.484Z,100144.19
2018-02-02T16:18:42.675Z,100137.23
2018-02-02T16:21:08.902Z,100136.81
2018-02-02T16:23:35.107Z,100142.48
2018-02-02T16:26:01.309Z,100149.50
2018-02-02T16:28:33.423Z,100157.41
2018-02-02T16:30:59.647Z,100162.16
2018-02-02T16:33:26.148Z,100169.11
2018-02-02T16:35:52.375Z,100166.05
2018-02-02T16:38:18.555Z,100175.22
2018-02-02T16:40:44.823Z,100175.27
2018-02-02T16:43:11.011Z,100173.12
2018-02-02T16:45:37.216Z,100180.06
2018-02-02T16:48:03.427Z,100183.95
2018-02-02T16:50:29.644Z,100177.01
2018-02-02T16:52:56.232Z,100189.66
2018-02-02T16:55:22.484Z,100179.63
2018-02-02T16:57:48.724Z,100189.23
2018-02-02T17:00:15.002Z,100179.62
2018-02-02T17:02:41.219Z,100184.90
2018-02-02T17:05:07.836Z,100189.70
2018-02-02T17:07:34.671Z,100182.76
2018-02-02T17:10:01.058Z,100187.56
2018-02-02T17:12:27.284Z,100200.62
2018-02-02T17:14:53.511Z,100197.64
2018-02-02T17:17:19.701Z,100199.39
2018-02-02T17:19:46.427Z,100204.19
2018-02-02T17:22:12.619Z,100203.75
2018-02-02T17:24:39.090Z,100208.12
2018-02-02T17:27:05.692Z,100209.47
2018-02-02T17:29:31.908Z,100207.77
2018-02-02T17:31:58.112Z,100210.77
2018-02-02T17:34:24.680Z,100218.59
2018-02-02T17:36:51.146Z,100218.98
2018-02-02T17:39:17.685Z,100208.55
2018-02-02T17:41:43.903Z,100224.70
2018-02-02T17:44:10.095Z,100212.95
2018-02-02T17:46:36.575Z,100226.45
2018-02-02T17:49:02.897Z,100221.61
2018-02-02T17:51:29.079Z,100228.11
2018-02-02T17:53:55.258Z,100229.90
2018-02-02T17:56:21.565Z,100228.95
2018-02-02T17:58:47.722Z,100235.97
2018-02-02T18:01:19.856Z,100238.98
2018-02-02T18:03:46.096Z,100253.39
2018-02-02T18:06:12.370Z,100259.94
2018-02-02T18:08:38.878Z,100261.29
2018-02-02T18:11:05.156Z,100270.49
2018-02-02T18:13:31.376Z,100272.24
2018-02-02T18:15:57.551Z,100269.14
2018-02-02T18:18:23.895Z,100267.40
2018-02-02T18:20:50.069Z,100271.80
2018-02-02T18:23:16.271Z,100278.39
2018-02-02T18:25:42.470Z,100278.83
2018-02-02T18:28:08.728Z,100288.87
2018-02-02T18:30:35.062Z,100288.87
2018-02-02T18:33:01.562Z,100287.23
2018-02-02T18:35:27.822Z,100292.03
2018-02-02T18:37:54.327Z,100295.56
2018-02-02T18:40:20.520Z,100289.02
2018-02-02T18:42:46.756Z,100297.31
2018-02-02T18:45:12.967Z,100299.45
2018-02-02T18:47:39.164Z,100299.42
2018-02-02T18:50:05.738Z,100294.63
2018-02-02T18:52:31.913Z,100290.33
2018-02-02T18:54:58.124Z,100298.55
2018-02-02T18:57:24.415Z,100300.30
2018-02-02T18:59:50.591Z,100302.51
2018-02-02T19:02:16.841Z,100301.64
2018-02-02T19:04:43.035Z,100306.48
2018-02-02T19:07:09.241Z,100308.63
2018-02-02T19:09:35.432Z,100305.53
2018-02-02T19:12:02.001Z,100301.16
2018-02-02T19:14:28.240Z,100302.11
2018-02-02T19:16:54.422Z,100304.73
2018-02-02T19:19:20.646Z,100310.80
2018-02-02T19:21:46.828Z,100308.22
2018-02-02T19:24:13.008Z,100312.59
2018-02-02T19:26:39.255Z,100319.61
2018-02-02T19:29:05.433Z,100326.11
2018-02-02T19:31:31.619Z,100331.31
2018-02-02T19:33:57.841Z,100332.16
2018-02-02T19:36:24.057Z,100339.72
2018-02-02T19:38:50.249Z,100338.81
2018-02-02T19:41:18.070Z,100341.90
2018-02-02T19:43:44.275Z,100353.21
2018-02-02T19:46:10.556Z,100350.55
2018-02-02T19:48:36.850Z,100349.72
2018-02-02T19:51:03.027Z,100353.25
2018-02-02T19:53:29.225Z,100358.09
2018-02-02T19:55:55.887Z,100360.23
2018-02-02T19:58:22.116Z,100364.16
2018-02-02T20:00:48.272Z,100365.91
2018-02-02T20:03:14.508Z,100377.25
2018-02-02T20:05:40.685Z,100380.31
2018-02-02T20:08:06.892Z,100375.95
2018-02-02T20:10:33.111Z,100380.81
2018-02-02T20:12:59.326Z,100387.40
2018-02-02T20:15:25.828Z,100390.45
2018-02-02T20:17:52.014Z,100393.55
2018-02-02T20:20:18.470Z,100393.51
2018-02-02T20:22:44.678Z,100398.28
2018-02-02T20:25:10.887Z,100403.51
2018-02-02T20:27:37.107Z,100403.95
2018-02-02T20:30:03.380Z,100401.30
2018-02-02T20:32:29.608Z,100396.97
2018-02-02T20:34:55.849Z,100413.55
2018-02-02T20:37:22.055Z,100410.09
2018-02-02T20:39:48.259Z,100407.08
2018-02-02T20:42:14.515Z,100416.27
2018-02-02T20:44:40.742Z,100421.55
2018-02-02T20:47:06.919Z,100420.23
2018-02-02T20:49:33.492Z,100417.22
2018-02-02T20:51:59.679Z,100411.14
2018-02-02T20:54:25.871Z,100416.78
2018-02-02T20:56:52.116Z,100415.03
2018-02-02T20:59:18.348Z,100418.09
2018-02-02T21:01:44.579Z,100424.56
2018-02-02T21:04:10.782Z,100418.89
2018-02-02T21:06:36.997Z,100428.49
2018-02-02T21:09:03.358Z,100436.81
2018-02-02T21:11:29.883Z,100439.88
2018-02-02T21:13:56.071Z,100439.44
2018-02-02T21:16:22.327Z,100444.70
2018-02-02T21:18:48.521Z,100448.67
2018-02-02T21:21:14.696Z,100447.36
2018-02-02T21:23:40.929Z,100450.45
2018-02-02T21:26:07.447Z,100455.18
2018-02-02T21:28:33.645Z,100463.87
2018-02-02T21:30:59.852Z,100464.31
2018-02-02T21:33:26.065Z,100464.48
2018-02-02T21:35:52.320Z,100468.44
2018-02-02T21:38:18.799Z,100467.09
2018-02-02T21:40:45.007Z,100468.41
2018-02-02T21:43:11.283Z,100466.66
2018-02-02T21:45:37.484Z,100469.68
2018-02-02T21:48:03.696Z,100471.42
2018-02-02T21:50:29.948Z,100468.38
2018-02-02T21:55:28.436Z,100481.02
2018-02-02T21:57:54.943Z,100480.63
2018-02-02T22:00:21.128Z,100483.64
2018-02-02T22:02:47.287Z,100494.13
2018-02-02T22:05:13.551Z,100490.16
2018-02-02T22:07:39.783Z,100495.39
2018-02-02T22:10:05.971Z,100498.48
2018-02-02T22:12:32.228Z,100497.17
2018-02-02T22:14:58.402Z,100499.80
2018-02-02T22:17:24.574Z,100493.21
2018-02-02T22:19:50.835Z,100495.39
2018-02-02T22:22:17.350Z,100505.03
2018-02-02T22:24:43.612Z,100507.21
2018-02-02T22:27:09.925Z,100503.72
2018-02-02T22:29:36.215Z,100501.97
2018-02-02T22:32:02.432Z,100503.72
2018-02-02T22:34:28.681Z,100507.64
2018-02-02T22:36:54.872Z,100514.22
2018-02-02T22:39:21.053Z,100517.24
2018-02-02T22:41:47.696Z,100515.94
2018-02-02T22:44:13.886Z,100516.00
2018-02-02T22:46:40.071Z,100523.48
2018-02-02T22:49:06.360Z,100521.23
2018-02-02T22:51:32.571Z,100523.42
2018-02-02T22:53:58.783Z,100527.38
2018-02-02T22:56:24.980Z,100525.20
2018-02-02T22:58:51.492Z,100526.10
2018-02-02T23:01:17.755Z,100521.77
2018-02-02T23:03:43.961Z,100522.64
2018-02-02T23:06:10.219Z,100522.17
2018-02-02T23:08:36.536Z,100519.12
2018-02-02T23:11:03.043Z,100524.83
2018-02-02T23:13:29.305Z,100529.63
2018-02-02T23:15:55.510Z,100531.41
2018-02-02T23:18:21.720Z,100534.02
2018-02-02T23:20:47.974Z,100539.66
2018-02-02T23:23:14.195Z,100533.11
2018-02-02T23:25:40.449Z,100531.40
2018-02-02T23:28:06.664Z,100537.05
2018-02-02T23:30:32.855Z,100537.08
2018-02-02T23:32:59.404Z,100540.97
2018-02-02T23:35:25.599Z,100544.86
2018-02-02T23:37:51.767Z,100541.38
2018-02-02T23:40:18.009Z,100549.19
2018-02-02T23:42:44.195Z,100544.89
2018-02-02T23:45:10.368Z,100546.64
2018-02-02T23:47:36.595Z,100550.16
2018-02-02T23:50:02.789Z,100549.32
2018-02-02T23:52:29.331Z,100552.31
2018-02-02T23:54:55.572Z,100554.09
2018-02-02T23:57:21.845Z,100552.78
2018-02-02T23:59:48.021Z,100564.12
